Flight Track Log - Related Links

Times and Time Zones

All times are in EDT time to prevent confusion due to time zone crossing. See the EJA820 flight status page for this flight to view local times or setup timezone preferences in your user account.

Time Position Orientation Groundspeed Altitude Reporting Facility
EDT Latitude Longitude Course Direction KTS MPH feet Rate Location/Type
Mon 01:10:58 PM 40.8833 -74.0333 311° West 160 184 2,000  Level New York TRACON
Mon 01:11:58 PM 40.9167 -74.0833 311° West 212 244 3,800 2,000 Climbing New York TRACON
Mon 01:12:52 PM 40.9167 -74.1667 270° West 235 270 5,800 1,158 Climbing New York TRACON
Mon 01:13:52 PM 40.8500 -74.2167 210° Southwest 269 310 6,000 95 Climbing New York TRACON
Mon 01:14:58 PM 40.7833 -74.2333 191° South 255 293 6,000  Level New York TRACON
Mon 01:15:58 PM 40.7167 -74.2500 191° South 254 292 6,000  Level New York TRACON
Mon 01:16:58 PM 40.6333 -74.2500 180° South 253 291 6,000  Level New York TRACON
Mon 01:17:52 PM 40.5667 -74.2667 191° South 260 299 6,000  Level New York TRACON
Mon 01:18:58 PM 40.5000 -74.2500 169° South 261 300 6,000 -256 Level New York TRACON
Mon 01:20:00 PM 40.4348 -74.2174 159° South  Level FlightAware Approximate
Mon 01:27:00 PM 40.0017 -74.2483 217° Southwest  Level FlightAware Approximate
Mon 01:28:00 PM 39.9462 -74.2985 215° Southwest  Level FlightAware Approximate
Mon 01:29:00 PM 39.8949 -74.3454 215° Southwest  Level FlightAware Approximate
Mon 01:30:00 PM 39.8436 -74.3922 215° Southwest  Level FlightAware Approximate
Mon 01:31:00 PM 39.7931 -74.4403 218° Southwest  Level FlightAware Approximate
Mon 01:31:55 PM 39.6525 -74.5189 150° Southeast 247 284 2,400  Level Washington Center
Mon 01:32:00 PM 39.7434 -74.4900 218° Southwest  Level FlightAware Approximate
Mon 01:33:00 PM 39.6180 -74.5986 218° Southwest  Level FlightAware Approximate
Mon 01:33:00 PM 39.6926 -74.5370 201° Southwest  Level FlightAware Approximate
Mon 01:34:00 PM 39.6461 -74.5769 201° Southwest  Level FlightAware Approximate
Mon 01:35:00 PM 39.6000 -74.6256 270° West  Level FlightAware Approximate
Mon 01:36:00 PM 39.5480 -74.6376 153° Southeast  Level FlightAware Approximate
Mon 01:36:19 PM 39.4261 -74.6217 150° Southeast 148 170 900  Level Washington Center
Mon 01:37:00 PM 39.4930 -74.5989 150° Southeast  Level FlightAware Approximate
Mon 01:40:00 PM 39.4576 -74.5772 150° Southeast  Level Estimated
Mon 01:41:00 PM 39.4576 -74.5772 150° Southeast  Level Estimated

Login

Don't have an account? Register now (free) for customized features, flight alerts, and more!